createdAt,value
2018-06-03T00:04:20.888Z,67.70
2018-06-03T00:09:23.484Z,68.00
2018-06-03T00:14:26.148Z,68.20
2018-06-03T00:19:28.945Z,69.00
2018-06-03T00:24:31.557Z,68.60
2018-06-03T00:29:34.095Z,68.60
2018-06-03T00:34:36.695Z,68.60
2018-06-03T00:39:39.245Z,69.00
2018-06-03T00:44:41.846Z,69.30
2018-06-03T00:49:44.377Z,68.80
2018-06-03T00:54:46.950Z,68.50
2018-06-03T00:59:49.472Z,68.80
2018-06-03T01:04:52.035Z,68.60
2018-06-03T01:09:54.666Z,68.90
2018-06-03T01:14:57.223Z,69.20
2018-06-03T01:19:59.769Z,69.10
2018-06-03T01:25:02.337Z,69.00
2018-06-03T01:30:04.922Z,69.00
2018-06-03T01:35:07.478Z,69.40
2018-06-03T01:40:10.053Z,69.20
2018-06-03T01:45:12.612Z,69.50
2018-06-03T01:50:15.177Z,69.40
2018-06-03T01:55:17.752Z,69.50
2018-06-03T02:00:20.353Z,69.70
2018-06-03T02:05:22.894Z,70.10
2018-06-03T02:10:25.446Z,70.30
2018-06-03T02:15:28.189Z,70.40
2018-06-03T02:20:30.739Z,70.40
2018-06-03T02:25:33.325Z,70.80
2018-06-03T02:30:35.868Z,70.90
2018-06-03T02:35:38.433Z,72.00
2018-06-03T02:40:40.983Z,71.40
2018-06-03T02:45:43.643Z,71.30
2018-06-03T02:50:46.209Z,71.30
2018-06-03T02:55:49.531Z,71.40
2018-06-03T03:00:52.097Z,71.40
2018-06-03T03:05:54.628Z,71.50
2018-06-03T03:10:57.180Z,71.70
2018-06-03T03:15:59.770Z,71.80
2018-06-03T03:21:02.434Z,72.00
2018-06-03T03:26:05.012Z,72.10
2018-06-03T03:31:07.596Z,72.30
2018-06-03T03:36:10.134Z,72.30
2018-06-03T03:41:12.662Z,72.30
2018-06-03T03:46:15.381Z,72.50
2018-06-03T03:51:17.941Z,72.50
2018-06-03T03:56:20.468Z,72.80
2018-06-03T04:01:23.029Z,72.70
2018-06-03T04:06:25.574Z,72.70
2018-06-03T04:11:28.117Z,72.00
2018-06-03T04:16:30.686Z,72.60
2018-06-03T04:21:33.258Z,72.90
2018-06-03T04:26:35.808Z,73.20
2018-06-03T04:31:38.418Z,73.00
2018-06-03T04:36:40.975Z,73.40
2018-06-03T04:41:43.627Z,73.10
2018-06-03T04:46:46.179Z,74.00
2018-06-03T04:51:49.590Z,73.50
2018-06-03T04:56:52.151Z,74.10
2018-06-03T05:01:54.695Z,73.70
2018-06-03T05:06:57.258Z,73.70
2018-06-03T05:11:59.805Z,73.90
2018-06-03T05:17:02.392Z,74.30
2018-06-03T05:22:04.949Z,74.10
2018-06-03T05:27:07.533Z,74.40
2018-06-03T05:32:10.063Z,74.30
2018-06-03T05:37:12.644Z,74.20
2018-06-03T05:42:15.219Z,74.00
2018-06-03T05:47:17.877Z,74.50
2018-06-03T05:52:20.580Z,74.10
2018-06-03T05:57:23.929Z,73.90
2018-06-03T06:02:26.456Z,73.80
2018-06-03T06:07:29.054Z,73.10
2018-06-03T06:12:31.662Z,72.40
2018-06-03T06:17:35.382Z,71.40
2018-06-03T06:22:37.962Z,71.30
2018-06-03T06:27:40.509Z,71.10
2018-06-03T06:32:43.046Z,70.40
2018-06-03T06:37:45.587Z,70.40
2018-06-03T06:42:48.161Z,69.50
2018-06-03T06:47:50.745Z,69.00
2018-06-03T06:52:53.310Z,69.20
2018-06-03T06:57:55.915Z,67.60
2018-06-03T07:02:58.640Z,66.90
2018-06-03T07:08:01.238Z,66.40
2018-06-03T07:13:03.887Z,64.60
2018-06-03T07:18:06.437Z,64.50
2018-06-03T07:23:08.967Z,64.10
2018-06-03T07:28:11.523Z,63.60
2018-06-03T07:33:14.120Z,62.00
2018-06-03T07:38:16.769Z,61.50
2018-06-03T07:43:19.306Z,60.80
2018-06-03T07:48:21.861Z,58.00
2018-06-03T07:53:24.464Z,59.20
2018-06-03T07:58:27.029Z,58.90
2018-06-03T08:03:29.651Z,58.40
2018-06-03T08:08:32.248Z,57.00
2018-06-03T08:13:34.818Z,57.10
2018-06-03T08:18:37.377Z,56.70
2018-06-03T08:23:39.939Z,53.00
2018-06-03T08:28:42.499Z,52.70
2018-06-03T08:33:45.221Z,53.80
2018-06-03T08:38:47.770Z,51.70
2018-06-03T08:43:50.382Z,50.50
2018-06-03T08:48:52.961Z,49.30
2018-06-03T08:53:56.331Z,50.50
2018-06-03T08:58:58.945Z,50.40
2018-06-03T09:04:01.509Z,50.30
2018-06-03T09:09:04.133Z,49.60
2018-06-03T09:14:06.721Z,49.50
2018-06-03T09:19:09.381Z,50.20
2018-06-03T09:24:12.010Z,47.10
2018-06-03T09:29:14.594Z,47.60
2018-06-03T09:34:17.170Z,44.40
2018-06-03T09:39:20.516Z,45.30
2018-06-03T09:44:23.073Z,45.30
2018-06-03T09:49:25.624Z,46.70
2018-06-03T09:54:28.200Z,45.50
2018-06-03T09:59:30.771Z,43.10
2018-06-03T10:04:33.358Z,43.20
2018-06-03T10:09:35.938Z,44.80
2018-06-03T10:14:38.660Z,45.30
2018-06-03T10:19:41.285Z,43.60
2018-06-03T10:24:44.061Z,43.30
2018-06-03T10:29:46.633Z,43.80
2018-06-03T10:34:49.281Z,44.90
2018-06-03T10:39:51.833Z,44.80
2018-06-03T10:44:54.569Z,44.80
2018-06-03T10:49:57.123Z,45.70
2018-06-03T10:54:59.717Z,43.80
2018-06-03T11:00:02.302Z,42.50
2018-06-03T11:05:05.053Z,43.60
2018-06-03T11:10:07.658Z,44.00
2018-06-03T11:15:10.219Z,45.70
2018-06-03T11:20:12.791Z,45.40
2018-06-03T11:25:15.366Z,46.50
2018-06-03T11:30:17.923Z,44.60
2018-06-03T11:35:20.479Z,44.80
2018-06-03T11:40:23.017Z,43.60
2018-06-03T11:45:25.783Z,43.20
2018-06-03T11:50:28.449Z,42.30
2018-06-03T11:55:31.119Z,42.00
2018-06-03T12:00:33.755Z,40.70
2018-06-03T12:05:37.177Z,38.10
2018-06-03T12:10:39.791Z,38.00
2018-06-03T12:15:42.373Z,38.20
2018-06-03T12:20:45.004Z,38.80
2018-06-03T12:25:47.837Z,41.40
2018-06-03T12:30:50.774Z,41.10
2018-06-03T12:35:53.513Z,41.90
2018-06-03T12:40:56.439Z,40.50
2018-06-03T12:45:59.237Z,40.60
2018-06-03T12:51:02.801Z,38.80
2018-06-03T12:56:05.391Z,38.80
2018-06-03T13:01:08.299Z,39.20
2018-06-03T13:06:10.973Z,39.60
2018-06-03T13:11:13.528Z,39.40
2018-06-03T13:16:16.284Z,37.80
2018-06-03T13:21:18.997Z,36.40
2018-06-03T13:26:21.550Z,37.50
2018-06-03T13:31:24.143Z,38.10
2018-06-03T13:36:26.828Z,37.20
2018-06-03T13:41:29.404Z,36.10
2018-06-03T13:46:32.152Z,35.10
2018-06-03T13:51:34.710Z,36.80
2018-06-03T13:56:37.497Z,37.70
2018-06-03T14:01:42.749Z,37.70
2018-06-03T14:06:45.443Z,37.30
2018-06-03T14:11:48.810Z,37.50
2018-06-03T14:16:52.103Z,35.60
2018-06-03T14:21:54.657Z,35.60
2018-06-03T14:26:57.206Z,35.70
2018-06-03T14:32:00.210Z,36.80
2018-06-03T14:37:02.931Z,36.30
2018-06-03T14:42:05.779Z,36.80
2018-06-03T14:47:08.353Z,37.30
2018-06-03T14:52:11.012Z,36.70
2018-06-03T14:57:13.612Z,36.20
2018-06-03T15:02:16.121Z,37.10
2018-06-03T15:07:18.811Z,37.30
2018-06-03T15:12:22.330Z,36.40
2018-06-03T15:17:24.911Z,35.30
2018-06-03T15:22:27.552Z,36.00
2018-06-03T15:27:30.174Z,35.80
2018-06-03T15:32:32.967Z,35.80
2018-06-03T15:37:35.537Z,35.90
2018-06-03T15:42:38.409Z,35.90
2018-06-03T15:47:41.821Z,36.50
2018-06-03T15:52:44.396Z,36.40
2018-06-03T15:57:46.945Z,36.20
2018-06-03T16:02:49.570Z,36.50
2018-06-03T16:07:52.067Z,36.30
2018-06-03T16:12:54.605Z,36.60
2018-06-03T16:17:57.153Z,36.50
2018-06-03T16:22:59.690Z,36.30
2018-06-03T16:28:02.545Z,37.20
2018-06-03T16:33:05.093Z,36.40
2018-06-03T16:38:07.683Z,36.00
2018-06-03T16:43:10.376Z,37.30
2018-06-03T16:48:13.030Z,38.30
2018-06-03T16:53:15.558Z,38.50
2018-06-03T16:58:18.177Z,38.70
2018-06-03T17:03:20.801Z,37.40
2018-06-03T17:08:23.395Z,37.10
2018-06-03T17:13:25.922Z,37.70
2018-06-03T17:18:28.562Z,38.00
2018-06-03T17:23:31.093Z,37.90
2018-06-03T17:28:33.648Z,38.40
2018-06-03T17:33:36.200Z,38.60
2018-06-03T17:38:38.724Z,38.60
2018-06-03T17:43:41.504Z,39.40
2018-06-03T17:48:44.270Z,39.80
2018-06-03T17:53:48.051Z,40.00
2018-06-03T17:58:50.921Z,40.20
2018-06-03T18:03:53.557Z,40.90
2018-06-03T18:08:56.162Z,40.90
2018-06-03T18:13:58.817Z,40.70
2018-06-03T18:19:04.149Z,41.30
2018-06-03T18:24:07.024Z,41.70
2018-06-03T18:29:09.713Z,45.60
2018-06-03T18:34:19.656Z,46.70
2018-06-03T18:39:22.652Z,47.50
2018-06-03T18:44:27.529Z,48.60
2018-06-03T18:49:30.360Z,48.70
2018-06-03T18:54:33.230Z,48.40
2018-06-03T18:59:37.360Z,51.90
2018-06-03T19:04:40.148Z,51.80
2018-06-03T19:09:42.898Z,52.50
2018-06-03T19:14:45.548Z,53.40
2018-06-03T19:19:48.943Z,54.20
2018-06-03T19:24:52.695Z,55.30
2018-06-03T19:29:57.201Z,55.20
2018-06-03T19:34:59.933Z,55.20
2018-06-03T19:40:02.632Z,55.70
2018-06-03T19:45:06.207Z,56.20
2018-06-03T19:50:09.651Z,56.20
2018-06-03T19:55:12.291Z,56.60
2018-06-03T20:00:15.220Z,57.10
2018-06-03T20:05:18.247Z,56.90
2018-06-03T20:10:21.322Z,57.20
2018-06-03T20:15:24.011Z,57.40
2018-06-03T20:20:26.863Z,56.60
2018-06-03T20:25:29.615Z,57.10
2018-06-03T20:30:32.550Z,57.50
2018-06-03T20:35:35.305Z,57.60
2018-06-03T20:40:38.123Z,57.50
2018-06-03T20:45:41.112Z,57.60
2018-06-03T20:50:44.028Z,57.80
2018-06-03T20:55:46.953Z,58.40
2018-06-03T21:00:50.642Z,58.10
2018-06-03T21:05:53.673Z,58.00
2018-06-03T21:10:56.719Z,58.40
2018-06-03T21:15:59.953Z,58.50
2018-06-03T21:21:03.388Z,58.90
2018-06-03T21:26:07.334Z,58.80
2018-06-03T21:31:10.201Z,59.20
2018-06-03T21:36:13.273Z,59.50
2018-06-03T21:41:16.735Z,59.80
2018-06-03T21:46:19.791Z,60.10
2018-06-03T21:51:23.201Z,60.20
2018-06-03T21:56:26.554Z,60.70
2018-06-03T22:01:29.583Z,60.50
2018-06-03T22:06:32.319Z,60.60
2018-06-03T22:11:35.808Z,60.70
2018-06-03T22:16:40.076Z,61.20
2018-06-03T22:21:57.506Z,61.10
2018-06-03T22:27:00.424Z,61.00
2018-06-03T22:32:03.466Z,61.60
2018-06-03T22:37:06.741Z,61.90
2018-06-03T22:42:10.137Z,62.10
2018-06-03T22:47:13.023Z,62.50
2018-06-03T22:52:15.923Z,62.60
2018-06-03T22:57:18.833Z,63.00
2018-06-03T23:02:22.569Z,63.00
2018-06-03T23:07:25.112Z,63.60
2018-06-03T23:12:28.489Z,63.90
2018-06-03T23:17:31.972Z,64.20
2018-06-03T23:22:35.601Z,64.30
2018-06-03T23:27:38.634Z,64.80
2018-06-03T23:32:41.852Z,64.60
2018-06-03T23:37:44.990Z,64.60
2018-06-03T23:42:48.355Z,65.00
2018-06-03T23:47:51.662Z,65.10
2018-06-03T23:52:55.945Z,65.60
2018-06-03T23:57:59.013Z,65.60
